createdAt,value
2023-02-18T00:04:41.162Z,71.20
2023-02-18T00:07:08.409Z,77.53
2023-02-18T00:09:35.612Z,81.68
2023-02-18T00:12:03.064Z,81.13
2023-02-18T00:14:30.252Z,85.18
2023-02-18T00:16:57.742Z,95.88
2023-02-18T00:19:25.406Z,83.78
2023-02-18T00:21:52.750Z,87.80
2023-02-18T00:24:20.258Z,84.97
2023-02-18T00:26:51.392Z,88.20
2023-02-18T00:29:20.659Z,84.70
2023-02-18T00:31:48.768Z,85.60
2023-02-18T00:34:19.483Z,86.40
2023-02-18T00:36:47.110Z,85.28
2023-02-18T00:39:15.436Z,85.13
2023-02-18T00:41:43.604Z,81.80
2023-02-18T00:44:12.904Z,86.82
2023-02-18T00:46:40.590Z,78.25
2023-02-18T00:49:08.749Z,93.28
2023-02-18T00:51:37.097Z,82.22
2023-02-18T00:54:04.472Z,87.47
2023-02-18T00:56:34.202Z,77.45
2023-02-18T00:59:01.449Z,96.63
2023-02-18T01:03:45.767Z,91.05
2023-02-18T01:06:15.367Z,96.43
2023-02-18T01:08:43.999Z,93.07
2023-02-18T01:11:13.716Z,92.85
2023-02-18T01:13:42.644Z,95.13
2023-02-18T01:16:11.122Z,97.53
2023-02-18T01:18:38.988Z,86.20
2023-02-18T01:21:08.947Z,85.70
2023-02-18T01:26:05.432Z,84.85
2023-02-18T01:28:32.966Z,88.32
2023-02-18T01:31:07.520Z,90.93
2023-02-18T01:33:35.293Z,87.97
2023-02-18T01:36:02.654Z,92.25
2023-02-18T01:38:29.985Z,80.32
2023-02-18T01:40:57.143Z,89.00
2023-02-18T01:43:24.284Z,91.00
2023-02-18T01:46:00.097Z,73.80
2023-02-18T01:48:46.711Z,81.68
2023-02-18T01:51:25.858Z,92.55
2023-02-18T01:54:17.096Z,83.85
2023-02-18T01:56:58.064Z,85.97
2023-02-18T01:59:47.511Z,79.80
2023-02-18T02:02:19.167Z,86.05
2023-02-18T02:04:47.856Z,84.60
2023-02-18T02:07:17.462Z,86.18
2023-02-18T02:09:46.241Z,81.03
2023-02-18T02:12:28.510Z,78.18
2023-02-18T02:15:20.065Z,78.55
2023-02-18T02:18:10.357Z,81.10
2023-02-18T02:21:05.566Z,83.72
2023-02-18T02:23:47.939Z,76.40
2023-02-18T02:26:40.451Z,79.35
2023-02-18T02:29:25.229Z,83.93
2023-02-18T02:32:15.675Z,88.03
2023-02-18T02:37:49.272Z,80.75
2023-02-18T02:40:45.879Z,84.95
2023-02-18T02:43:24.658Z,82.18
2023-02-18T02:46:02.619Z,75.13
2023-02-18T02:48:48.348Z,90.35
2023-02-18T02:51:35.379Z,90.70
2023-02-18T02:54:20.137Z,100.70
2023-02-18T02:56:48.090Z,103.68
2023-02-18T02:59:24.956Z,119.72
2023-02-18T03:02:19.197Z,118.20
2023-02-18T03:05:22.072Z,125.07
2023-02-18T03:08:20.060Z,123.22
2023-02-18T03:11:12.159Z,129.52
2023-02-18T03:14:03.099Z,144.77
2023-02-18T03:17:04.405Z,152.18
2023-02-18T03:19:35.329Z,140.10
2023-02-18T03:22:11.605Z,150.93
2023-02-18T03:24:42.779Z,131.02
2023-02-18T03:27:19.248Z,137.82
2023-02-18T03:29:52.535Z,147.95
2023-02-18T03:32:25.398Z,132.20
2023-02-18T03:35:00.569Z,125.68
2023-02-18T03:37:28.341Z,130.02
2023-02-18T03:39:59.408Z,117.05
2023-02-18T03:42:28.673Z,114.22
2023-02-18T03:44:56.580Z,97.05
2023-02-18T03:47:24.461Z,98.43
2023-02-18T03:49:51.803Z,84.95
2023-02-18T03:52:19.265Z,88.28
2023-02-18T03:54:47.233Z,75.00
2023-02-18T03:57:16.771Z,68.55
2023-02-18T03:59:45.694Z,66.93
2023-02-18T04:02:12.929Z,61.00
2023-02-18T04:04:40.258Z,57.05
2023-02-18T04:07:08.088Z,55.83
2023-02-18T04:09:36.712Z,48.10
2023-02-18T04:12:04.922Z,48.22
2023-02-18T04:14:33.082Z,51.03
2023-02-18T04:17:01.434Z,46.80
2023-02-18T04:19:29.644Z,43.45
2023-02-18T04:21:57.316Z,35.10
2023-02-18T04:24:25.718Z,31.83
2023-02-18T04:26:53.562Z,34.38
2023-02-18T04:29:21.143Z,34.25
2023-02-18T04:31:48.675Z,29.77
2023-02-18T04:34:17.270Z,28.17
2023-02-18T04:36:45.420Z,26.55
2023-02-18T04:39:13.065Z,27.90
2023-02-18T04:41:40.441Z,24.60
2023-02-18T04:44:08.480Z,27.08
2023-02-18T04:46:36.386Z,25.23
2023-02-18T04:49:07.271Z,24.77
2023-02-18T04:51:34.701Z,21.90
2023-02-18T04:54:02.339Z,19.92
2023-02-18T04:56:29.944Z,24.88
2023-02-18T04:58:57.875Z,24.58
2023-02-18T05:01:36.025Z,22.45
2023-02-18T05:04:04.268Z,21.92
2023-02-18T05:06:31.800Z,20.27
2023-02-18T05:08:58.948Z,20.80
2023-02-18T05:11:28.298Z,21.65
2023-02-18T05:13:56.343Z,26.15
2023-02-18T05:16:24.236Z,17.08
2023-02-18T05:18:51.433Z,21.85
2023-02-18T05:21:18.596Z,20.02
2023-02-18T05:23:47.314Z,18.48
2023-02-18T05:26:15.358Z,22.38
2023-02-18T05:28:43.981Z,20.35
2023-02-18T05:31:12.140Z,18.70
2023-02-18T05:33:39.753Z,20.55
2023-02-18T05:36:07.948Z,20.17
2023-02-18T05:38:35.667Z,20.98
2023-02-18T05:41:03.163Z,22.58
2023-02-18T05:43:30.734Z,21.50
2023-02-18T05:45:57.816Z,21.08
2023-02-18T05:48:25.154Z,23.55
2023-02-18T05:50:54.561Z,20.52
2023-02-18T05:53:23.453Z,21.75
2023-02-18T05:55:50.647Z,22.08
2023-02-18T05:58:17.815Z,24.65
2023-02-18T06:00:45.515Z,19.98
2023-02-18T06:03:13.217Z,21.60
2023-02-18T06:05:40.542Z,22.52
2023-02-18T06:08:07.824Z,22.88
2023-02-18T06:10:35.067Z,25.90
2023-02-18T06:13:04.286Z,23.27
2023-02-18T06:15:31.550Z,26.05
2023-02-18T06:17:59.016Z,26.10
2023-02-18T06:20:26.148Z,23.33
2023-02-18T06:22:53.311Z,26.50
2023-02-18T06:25:20.903Z,26.23
2023-02-18T06:27:47.985Z,24.33
2023-02-18T06:30:16.973Z,25.15
2023-02-18T06:32:46.546Z,22.40
2023-02-18T06:35:16.753Z,21.65
2023-02-18T06:37:45.281Z,24.35
2023-02-18T06:40:12.538Z,20.52
2023-02-18T06:42:40.034Z,22.83
2023-02-18T06:45:10.426Z,24.45
2023-02-18T06:50:05.919Z,24.15
2023-02-18T06:52:40.547Z,21.80
2023-02-18T06:55:09.915Z,19.50
2023-02-18T06:57:37.124Z,20.48
2023-02-18T07:00:06.576Z,18.85
2023-02-18T07:02:34.048Z,19.98
2023-02-18T07:05:01.744Z,19.05
2023-02-18T07:07:29.938Z,18.73
2023-02-18T07:09:57.661Z,17.92
2023-02-18T07:12:26.142Z,17.73
2023-02-18T07:14:53.763Z,19.48
2023-02-18T07:17:21.705Z,17.17
2023-02-18T07:19:49.246Z,15.75
2023-02-18T07:22:18.254Z,17.75
2023-02-18T07:24:52.608Z,16.55
2023-02-18T07:27:21.104Z,14.38
2023-02-18T07:29:49.179Z,16.80
2023-02-18T07:32:19.341Z,13.82
2023-02-18T07:34:47.648Z,14.57
2023-02-18T07:37:16.718Z,13.48
2023-02-18T07:39:47.665Z,12.07
2023-02-18T07:42:15.992Z,13.70
2023-02-18T07:44:47.088Z,11.52
2023-02-18T07:47:19.124Z,11.60
2023-02-18T07:49:49.892Z,11.18
2023-02-18T07:52:17.483Z,13.13
2023-02-18T07:54:45.393Z,14.38
2023-02-18T07:57:12.986Z,11.23
2023-02-18T07:59:40.234Z,17.27
2023-02-18T08:02:10.672Z,22.20
2023-02-18T08:07:06.428Z,31.88
2023-02-18T08:09:34.507Z,26.42
2023-02-18T08:12:02.442Z,19.60
2023-02-18T08:14:29.765Z,24.38
2023-02-18T08:16:57.534Z,20.95
2023-02-18T08:19:25.018Z,27.88
2023-02-18T08:21:52.175Z,31.17
2023-02-18T08:24:19.673Z,23.10
2023-02-18T08:26:59.827Z,27.60
2023-02-18T08:29:27.874Z,31.77
2023-02-18T08:31:57.299Z,24.88
2023-02-18T08:34:24.678Z,26.25
2023-02-18T08:36:52.058Z,26.73
2023-02-18T08:39:19.575Z,36.63
2023-02-18T08:41:49.697Z,28.38
2023-02-18T08:44:17.302Z,32.97
2023-02-18T08:46:52.133Z,33.40
2023-02-18T08:49:24.443Z,33.97
2023-02-18T08:51:51.653Z,26.92
2023-02-18T08:54:19.141Z,29.85
2023-02-18T08:56:50.108Z,24.42
2023-02-18T09:01:45.484Z,22.05
2023-02-18T09:04:13.183Z,25.30
2023-02-18T09:06:40.605Z,32.92
2023-02-18T09:09:08.036Z,34.10
2023-02-18T09:11:35.354Z,29.45
2023-02-18T09:14:03.083Z,25.23
2023-02-18T09:16:31.177Z,28.52
2023-02-18T09:18:59.294Z,36.72
2023-02-18T09:21:27.205Z,29.92
2023-02-18T09:23:58.979Z,34.55
2023-02-18T09:26:27.485Z,33.17
2023-02-18T09:28:56.931Z,33.55
2023-02-18T09:31:27.021Z,30.35
2023-02-18T09:34:00.187Z,32.38
2023-02-18T09:36:28.288Z,23.95
2023-02-18T09:38:56.765Z,27.48
2023-02-18T09:41:38.111Z,33.85
2023-02-18T09:44:31.329Z,31.83
2023-02-18T09:47:10.821Z,25.95
2023-02-18T09:49:44.090Z,23.52
2023-02-18T09:52:39.597Z,26.48
2023-02-18T09:55:24.591Z,33.00
2023-02-18T09:57:55.545Z,28.40
2023-02-18T10:00:29.813Z,28.35
2023-02-18T10:03:22.118Z,30.75
2023-02-18T10:06:24.231Z,32.83
2023-02-18T10:08:54.376Z,22.98
2023-02-18T10:11:40.619Z,31.02
2023-02-18T10:14:17.993Z,27.05
2023-02-18T10:16:48.021Z,28.70
2023-02-18T10:19:29.983Z,23.55
2023-02-18T10:21:58.178Z,27.65
2023-02-18T10:24:46.954Z,23.17
2023-02-18T10:27:24.342Z,35.05
2023-02-18T10:29:52.247Z,29.30
2023-02-18T10:32:33.080Z,20.48
2023-02-18T10:35:05.812Z,26.42
2023-02-18T10:37:54.817Z,30.95
2023-02-18T10:40:34.691Z,21.60
2023-02-18T10:43:07.534Z,19.30
2023-02-18T10:46:06.102Z,26.15
2023-02-18T10:49:11.006Z,19.55
2023-02-18T10:51:42.805Z,26.10
2023-02-18T10:54:10.620Z,18.65
2023-02-18T10:56:50.146Z,18.23
2023-02-18T10:59:21.135Z,19.88
2023-02-18T11:02:24.500Z,20.73
2023-02-18T11:05:00.976Z,19.50
2023-02-18T11:07:35.135Z,22.05
2023-02-18T11:10:19.594Z,20.95
2023-02-18T11:12:50.688Z,19.60
2023-02-18T11:15:20.160Z,18.95
2023-02-18T11:17:50.610Z,19.73
2023-02-18T11:22:52.004Z,18.77
2023-02-18T11:25:33.814Z,17.90
2023-02-18T11:28:06.482Z,19.23
2023-02-18T11:30:40.510Z,25.35
2023-02-18T11:33:21.011Z,22.05
2023-02-18T11:38:37.201Z,27.25
2023-02-18T11:41:10.384Z,15.98
2023-02-18T11:43:42.901Z,22.75
2023-02-18T11:46:17.657Z,18.38
2023-02-18T11:48:46.549Z,15.77
2023-02-18T11:51:33.317Z,12.63
2023-02-18T11:54:06.735Z,11.63
2023-02-18T11:56:41.472Z,12.10
2023-02-18T11:59:12.034Z,23.48
2023-02-18T12:04:43.998Z,19.80
2023-02-18T12:07:21.335Z,13.95
2023-02-18T12:09:55.445Z,16.13
2023-02-18T12:12:28.412Z,14.32
2023-02-18T12:14:56.605Z,13.38
2023-02-18T12:17:43.090Z,21.88
2023-02-18T12:20:42.815Z,19.80
2023-02-18T12:23:51.760Z,23.27
2023-02-18T12:26:28.791Z,23.80
2023-02-18T12:29:27.285Z,19.38
2023-02-18T12:32:17.699Z,14.90
2023-02-18T12:37:55.961Z,16.42
2023-02-18T12:40:51.924Z,21.48
2023-02-18T12:43:43.184Z,22.10
2023-02-18T12:46:27.532Z,23.38
2023-02-18T12:49:08.115Z,17.42
2023-02-18T12:51:57.512Z,20.45
2023-02-18T12:54:36.559Z,17.30
2023-02-18T12:57:55.903Z,16.08
2023-02-18T13:00:37.592Z,17.08
2023-02-18T13:03:39.443Z,20.25
2023-02-18T13:06:27.703Z,17.95
2023-02-18T13:09:10.499Z,12.30
2023-02-18T13:11:45.354Z,20.02
2023-02-18T13:14:22.477Z,23.20
2023-02-18T13:16:56.676Z,14.05
2023-02-18T13:19:48.701Z,18.95
2023-02-18T13:22:25.109Z,16.13
2023-02-18T13:24:55.515Z,19.65
2023-02-18T13:27:49.425Z,30.80
2023-02-18T13:30:26.368Z,22.20
2023-02-18T13:33:19.850Z,23.27
2023-02-18T13:35:53.321Z,16.63
2023-02-18T13:38:42.478Z,25.27
2023-02-18T13:41:10.310Z,21.55
2023-02-18T13:43:37.834Z,14.15
2023-02-18T13:46:20.189Z,15.95
2023-02-18T13:49:06.277Z,16.90
2023-02-18T13:51:49.032Z,18.85
2023-02-18T13:54:31.762Z,16.70
2023-02-18T13:57:04.124Z,21.02
2023-02-18T13:59:51.234Z,12.52
2023-02-18T14:02:22.073Z,14.35
2023-02-18T14:04:55.675Z,20.27
2023-02-18T14:07:41.801Z,20.38
2023-02-18T14:10:21.399Z,18.45
2023-02-18T14:12:58.343Z,18.00
2023-02-18T14:15:25.862Z,17.75
2023-02-18T14:17:59.400Z,18.88
2023-02-18T14:20:45.273Z,22.55
2023-02-18T14:23:18.527Z,20.02
2023-02-18T14:25:59.272Z,20.17
2023-02-18T14:31:30.448Z,15.30
2023-02-18T14:34:23.604Z,19.13
2023-02-18T14:37:12.539Z,17.40
2023-02-18T14:39:55.749Z,18.52
2023-02-18T14:42:47.103Z,19.27
2023-02-18T14:45:35.348Z,16.65
2023-02-18T14:48:08.877Z,19.35
2023-02-18T14:50:39.156Z,16.88
2023-02-18T14:53:13.399Z,12.52
2023-02-18T14:55:48.086Z,19.95
2023-02-18T14:58:26.938Z,17.33
2023-02-18T15:00:54.281Z,19.00
2023-02-18T15:03:22.917Z,19.05
2023-02-18T15:05:51.661Z,18.02
2023-02-18T15:08:24.426Z,19.25
2023-02-18T15:11:05.196Z,13.90
2023-02-18T15:16:30.224Z,14.38
2023-02-18T15:19:00.712Z,18.77
2023-02-18T15:24:10.307Z,23.85
2023-02-18T15:26:43.673Z,11.55
2023-02-18T15:29:20.397Z,14.70
2023-02-18T15:31:48.986Z,15.10
2023-02-18T15:34:39.514Z,18.30
2023-02-18T15:37:13.934Z,15.95
2023-02-18T15:39:44.068Z,16.98
2023-02-18T15:42:29.936Z,14.52
2023-02-18T15:45:05.048Z,17.27
2023-02-18T15:47:33.543Z,11.60
2023-02-18T15:50:03.786Z,16.45
2023-02-18T15:52:33.991Z,16.70
2023-02-18T15:55:16.905Z,18.42
2023-02-18T15:57:46.045Z,19.33
2023-02-18T16:00:20.771Z,15.80
2023-02-18T16:03:17.012Z,17.15
2023-02-18T16:05:46.554Z,18.45
2023-02-18T16:08:26.410Z,19.13
2023-02-18T16:11:03.359Z,23.27
2023-02-18T16:13:31.682Z,22.85
2023-02-18T16:16:01.048Z,17.50
2023-02-18T16:18:40.477Z,18.42
2023-02-18T16:21:34.447Z,10.75
2023-02-18T16:24:04.399Z,25.52
2023-02-18T16:26:42.609Z,16.85
2023-02-18T16:29:16.533Z,18.55
2023-02-18T16:31:44.777Z,18.13
2023-02-18T16:34:12.422Z,12.52
2023-02-18T16:37:00.199Z,19.88
2023-02-18T16:39:33.962Z,17.45
2023-02-18T16:42:03.027Z,19.27
2023-02-18T16:44:32.648Z,21.30
2023-02-18T16:46:59.928Z,21.43
2023-02-18T16:49:29.222Z,16.70
2023-02-18T16:51:58.569Z,18.85
2023-02-18T16:54:28.569Z,20.88
2023-02-18T16:56:56.228Z,14.20
2023-02-18T16:59:23.337Z,22.58
2023-02-18T17:01:50.591Z,24.63
2023-02-18T17:04:20.244Z,16.27
2023-02-18T17:06:48.725Z,21.55
2023-02-18T17:09:24.587Z,19.88
2023-02-18T17:11:54.693Z,20.13
2023-02-18T17:14:23.812Z,17.85
2023-02-18T17:16:54.703Z,19.08
2023-02-18T17:19:22.017Z,22.50
2023-02-18T17:21:49.331Z,17.67
2023-02-18T17:24:19.295Z,23.90
2023-02-18T17:26:47.049Z,19.38
2023-02-18T17:29:14.893Z,24.48
2023-02-18T17:31:47.534Z,26.33
2023-02-18T17:34:24.979Z,23.08
2023-02-18T17:36:52.694Z,19.70
2023-02-18T17:39:21.169Z,18.80
2023-02-18T17:41:49.221Z,15.60
2023-02-18T17:44:20.487Z,16.73
2023-02-18T17:46:49.813Z,19.08
2023-02-18T17:49:17.243Z,19.52
2023-02-18T17:51:45.120Z,19.90
2023-02-18T17:54:14.556Z,19.77
2023-02-18T17:56:43.239Z,22.80
2023-02-18T17:59:11.156Z,23.98
2023-02-18T18:01:43.082Z,28.33
2023-02-18T18:04:18.564Z,28.25
2023-02-18T18:06:47.524Z,27.83
2023-02-18T18:09:15.101Z,27.00
2023-02-18T18:11:44.329Z,27.55
2023-02-18T18:14:16.350Z,29.83
2023-02-18T18:16:43.989Z,23.23
2023-02-18T18:19:12.319Z,30.23
2023-02-18T18:21:40.495Z,20.40
2023-02-18T18:24:10.781Z,30.00
2023-02-18T18:26:38.463Z,24.33
2023-02-18T18:29:06.517Z,25.17
2023-02-18T18:31:36.599Z,25.75
2023-02-18T18:34:05.504Z,27.58
2023-02-18T18:36:32.531Z,25.50
2023-02-18T18:39:01.796Z,30.25
2023-02-18T18:41:29.046Z,23.55
2023-02-18T18:43:56.267Z,18.70
2023-02-18T18:46:23.921Z,17.15
2023-02-18T18:48:51.255Z,17.35
2023-02-18T18:51:27.854Z,15.05
2023-02-18T18:53:55.127Z,10.85
2023-02-18T18:56:23.024Z,12.07
2023-02-18T18:58:50.837Z,11.43
2023-02-18T19:01:27.740Z,10.35
2023-02-18T19:03:55.853Z,11.23
2023-02-18T19:06:23.120Z,14.43
2023-02-18T19:08:50.329Z,17.85
2023-02-18T19:11:18.133Z,21.52
2023-02-18T19:13:46.455Z,22.27
2023-02-18T19:16:19.050Z,29.60
2023-02-18T19:18:47.455Z,31.42
2023-02-18T19:21:15.392Z,32.75
2023-02-18T19:23:43.433Z,31.42
2023-02-18T19:26:11.675Z,40.40
2023-02-18T19:28:39.912Z,42.15
2023-02-18T19:31:10.001Z,48.65
2023-02-18T19:33:39.546Z,51.75
2023-02-18T19:36:11.815Z,50.25
2023-02-18T19:38:39.677Z,61.83
2023-02-18T19:41:12.617Z,67.72
2023-02-18T19:43:41.559Z,60.83
2023-02-18T19:46:15.743Z,62.13
2023-02-18T19:48:52.045Z,60.78
2023-02-18T19:51:21.585Z,66.18
2023-02-18T19:53:50.426Z,58.63
2023-02-18T19:56:20.629Z,71.95
2023-02-18T19:58:48.006Z,66.45
2023-02-18T20:01:17.788Z,65.57
2023-02-18T20:03:46.110Z,60.28
2023-02-18T20:06:22.427Z,65.18
2023-02-18T20:08:49.933Z,62.70
2023-02-18T20:11:17.447Z,64.28
2023-02-18T20:13:45.248Z,57.55
2023-02-18T20:16:12.494Z,50.53
2023-02-18T20:18:39.800Z,53.50
2023-02-18T20:21:09.964Z,59.72
2023-02-18T20:23:39.395Z,60.47
2023-02-18T20:26:08.663Z,62.22
2023-02-18T20:28:36.229Z,55.28
2023-02-18T20:31:12.298Z,64.75
2023-02-18T20:33:42.919Z,55.85
2023-02-18T20:36:13.008Z,64.72
2023-02-18T20:38:40.333Z,66.32
2023-02-18T20:41:10.613Z,62.53
2023-02-18T20:46:10.582Z,58.28
2023-02-18T20:48:46.360Z,64.15
2023-02-18T20:51:23.549Z,65.00
2023-02-18T20:53:51.447Z,61.20
2023-02-18T20:56:20.855Z,63.03
2023-02-18T20:58:49.621Z,60.13
2023-02-18T21:01:19.206Z,63.42
2023-02-18T21:03:48.440Z,59.95
2023-02-18T21:06:19.485Z,59.72
2023-02-18T21:08:49.922Z,62.63
2023-02-18T21:11:20.515Z,61.42
2023-02-18T21:13:49.602Z,65.00
2023-02-18T21:16:18.947Z,63.40
2023-02-18T21:18:47.745Z,62.50
2023-02-18T21:21:15.345Z,69.57
2023-02-18T21:23:43.026Z,68.55
2023-02-18T21:26:15.373Z,67.18
2023-02-18T21:28:43.212Z,79.13
2023-02-18T21:31:22.409Z,67.40
2023-02-18T21:33:51.472Z,73.90
2023-02-18T21:36:19.568Z,78.15
2023-02-18T21:38:52.750Z,79.45
2023-02-18T21:41:21.369Z,73.97
2023-02-18T21:43:54.425Z,65.35
2023-02-18T21:46:27.368Z,71.00
2023-02-18T21:49:07.498Z,62.65
2023-02-18T21:51:59.290Z,71.93
2023-02-18T21:54:47.440Z,60.85
2023-02-18T21:57:18.360Z,73.15
2023-02-18T22:02:22.197Z,66.90
2023-02-18T22:04:50.900Z,70.88
2023-02-18T22:07:24.678Z,67.15
2023-02-18T22:09:53.918Z,69.53
2023-02-18T22:12:22.909Z,68.93
2023-02-18T22:14:50.336Z,79.68
2023-02-18T22:17:18.921Z,72.65
2023-02-18T22:19:48.592Z,74.53
2023-02-18T22:22:17.475Z,75.82
2023-02-18T22:24:45.656Z,76.70
2023-02-18T22:27:16.166Z,69.85
2023-02-18T22:32:10.830Z,72.20
2023-02-18T22:34:38.107Z,83.35
2023-02-18T22:37:05.666Z,82.43
2023-02-18T22:39:32.887Z,78.75
2023-02-18T22:42:00.047Z,74.93
2023-02-18T22:44:27.669Z,79.22
2023-02-18T22:46:56.743Z,71.85
2023-02-18T22:49:25.497Z,77.65
2023-02-18T22:51:54.290Z,75.90
2023-02-18T22:54:23.206Z,62.22
2023-02-18T22:56:50.665Z,63.53
2023-02-18T22:59:19.374Z,67.32
2023-02-18T23:01:49.996Z,64.28
2023-02-18T23:06:50.996Z,80.93
2023-02-18T23:09:23.115Z,57.90
2023-02-18T23:11:52.365Z,64.32
2023-02-18T23:14:20.284Z,51.40
2023-02-18T23:17:17.533Z,59.92
2023-02-18T23:19:48.093Z,57.42
2023-02-18T23:24:46.585Z,59.90
2023-02-18T23:27:16.056Z,56.95
2023-02-18T23:29:43.370Z,63.58
2023-02-18T23:32:10.901Z,62.90
2023-02-18T23:34:38.706Z,61.17
2023-02-18T23:37:06.682Z,62.60
2023-02-18T23:39:34.892Z,63.08
2023-02-18T23:42:03.126Z,49.72
2023-02-18T23:44:30.510Z,58.42
2023-02-18T23:46:57.975Z,55.47
2023-02-18T23:49:26.972Z,57.55
2023-02-18T23:51:57.020Z,53.08
2023-02-18T23:54:24.957Z,62.88
2023-02-18T23:56:52.585Z,47.10
2023-02-18T23:59:20.242Z,49.03
